createdAt,value
2023-05-08T00:01:30.008Z,10.90
2023-05-08T00:03:56.884Z,11.04
2023-05-08T00:06:23.715Z,10.75
2023-05-08T00:08:50.292Z,10.31
2023-05-08T00:11:16.802Z,10.04
2023-05-08T00:13:43.405Z,10.23
2023-05-08T00:16:11.470Z,10.15
2023-05-08T00:18:38.887Z,10.23
2023-05-08T00:21:06.776Z,10.11
2023-05-08T00:23:33.713Z,10.75
2023-05-08T00:26:00.255Z,10.50
2023-05-08T00:28:27.103Z,10.65
2023-05-08T00:30:54.044Z,10.32
2023-05-08T00:33:20.638Z,10.38
2023-05-08T00:35:47.302Z,10.42
2023-05-08T00:38:13.887Z,10.61
2023-05-08T00:40:40.477Z,10.22
2023-05-08T00:43:07.061Z,10.39
2023-05-08T00:45:37.688Z,10.16
2023-05-08T00:48:05.061Z,10.79
2023-05-08T00:50:32.972Z,10.57
2023-05-08T00:53:02.793Z,10.20
2023-05-08T00:55:30.104Z,10.29
2023-05-08T00:57:57.237Z,10.12
2023-05-08T01:00:24.627Z,10.06
2023-05-08T01:02:51.850Z,9.98
2023-05-08T01:05:18.555Z,10.36
2023-05-08T01:07:45.763Z,10.64
2023-05-08T01:10:12.506Z,11.85
2023-05-08T01:13:08.634Z,12.14
2023-05-08T01:15:47.649Z,13.01
2023-05-08T01:18:14.145Z,12.76
2023-05-08T01:21:03.205Z,11.91
2023-05-08T01:23:53.024Z,11.93
2023-05-08T01:26:47.649Z,11.30
2023-05-08T01:29:42.524Z,11.34
2023-05-08T01:32:38.982Z,11.09
2023-05-08T01:35:12.521Z,11.02
2023-05-08T01:37:52.935Z,10.89
2023-05-08T01:40:25.076Z,10.60
2023-05-08T01:43:10.731Z,10.90
2023-05-08T01:45:46.728Z,10.99
2023-05-08T01:48:35.884Z,10.43
2023-05-08T01:51:08.521Z,10.88
2023-05-08T01:53:41.458Z,10.16
2023-05-08T01:56:17.131Z,10.07
2023-05-08T01:58:45.382Z,10.22
2023-05-08T02:01:15.349Z,9.74
2023-05-08T02:03:45.806Z,9.90
2023-05-08T02:06:17.780Z,9.94
2023-05-08T02:08:57.713Z,9.62
2023-05-08T02:11:26.112Z,9.09
2023-05-08T02:13:53.879Z,9.86
2023-05-08T02:16:22.771Z,10.01
2023-05-08T02:18:53.996Z,10.03
2023-05-08T02:21:22.937Z,9.95
2023-05-08T02:23:52.512Z,9.63
2023-05-08T02:26:22.258Z,10.14
2023-05-08T02:28:53.037Z,10.31
2023-05-08T02:31:20.930Z,10.79
2023-05-08T02:33:50.370Z,10.87
2023-05-08T02:36:19.088Z,10.96
2023-05-08T02:38:50.896Z,11.89
2023-05-08T02:41:22.285Z,11.94
2023-05-08T02:43:51.864Z,11.49
2023-05-08T02:46:22.569Z,11.27
2023-05-08T02:49:01.811Z,12.00
2023-05-08T02:51:47.954Z,11.65
2023-05-08T02:55:00.710Z,10.99
2023-05-08T02:57:46.692Z,11.11
2023-05-08T03:00:28.964Z,11.28
2023-05-08T03:03:20.776Z,10.21
2023-05-08T03:05:53.248Z,10.22
2023-05-08T03:08:27.608Z,9.95
2023-05-08T03:10:59.090Z,10.28
2023-05-08T03:13:29.704Z,10.29
2023-05-08T03:16:04.100Z,10.32
2023-05-08T03:18:38.417Z,10.07
2023-05-08T03:21:08.924Z,10.25
2023-05-08T03:23:39.050Z,10.11
2023-05-08T03:26:07.739Z,10.14
2023-05-08T03:28:37.809Z,10.22
2023-05-08T03:31:06.352Z,10.19
2023-05-08T03:33:37.187Z,10.46
2023-05-08T03:36:04.212Z,10.61
2023-05-08T03:38:31.161Z,10.10
2023-05-08T03:40:59.269Z,10.47
2023-05-08T03:43:27.796Z,10.30
2023-05-08T03:45:57.200Z,10.61
2023-05-08T03:48:24.577Z,10.19
2023-05-08T03:50:52.039Z,10.85
2023-05-08T03:53:18.644Z,10.62
2023-05-08T03:55:45.611Z,10.69
2023-05-08T03:58:28.577Z,10.79
2023-05-08T04:01:17.410Z,10.94
2023-05-08T04:03:56.389Z,11.17
2023-05-08T04:06:30.764Z,10.85
2023-05-08T04:09:13.253Z,10.96
2023-05-08T04:12:04.651Z,11.07
2023-05-08T04:14:45.437Z,11.54
2023-05-08T04:17:17.892Z,11.66
2023-05-08T04:19:48.481Z,11.46
2023-05-08T04:22:20.282Z,10.89
2023-05-08T04:24:50.713Z,11.31
2023-05-08T04:27:17.639Z,11.43
2023-05-08T04:29:44.752Z,10.95
2023-05-08T04:32:12.432Z,11.19
2023-05-08T04:34:39.813Z,11.08
2023-05-08T04:37:07.907Z,11.45
2023-05-08T04:39:34.465Z,11.33
2023-05-08T04:42:04.752Z,11.69
2023-05-08T04:44:32.158Z,11.89
2023-05-08T04:46:58.704Z,12.38
2023-05-08T04:49:25.297Z,12.34
2023-05-08T04:51:51.911Z,12.85
2023-05-08T04:54:18.537Z,12.62
2023-05-08T04:56:45.083Z,12.44
2023-05-08T04:59:12.474Z,13.35
2023-05-08T05:01:40.359Z,13.68
2023-05-08T05:04:07.296Z,13.55
2023-05-08T05:06:34.219Z,13.78
2023-05-08T05:09:00.927Z,14.09
2023-05-08T05:11:27.853Z,14.06
2023-05-08T05:13:54.488Z,13.72
2023-05-08T05:16:21.362Z,14.09
2023-05-08T05:18:48.116Z,13.82
2023-05-08T05:21:14.729Z,14.54
2023-05-08T05:23:41.441Z,13.06
2023-05-08T05:26:08.179Z,13.42
2023-05-08T05:28:34.784Z,14.09
2023-05-08T05:31:01.610Z,14.85
2023-05-08T05:33:28.429Z,15.35
2023-05-08T05:35:55.015Z,15.77
2023-05-08T05:38:21.633Z,15.16
2023-05-08T05:40:50.683Z,14.93
2023-05-08T05:43:19.694Z,14.17
2023-05-08T05:45:46.372Z,15.17
2023-05-08T05:48:13.023Z,16.17
2023-05-08T05:50:39.626Z,16.54
2023-05-08T05:53:06.308Z,17.74
2023-05-08T05:55:33.010Z,19.43
2023-05-08T05:57:59.756Z,19.72
2023-05-08T06:00:26.407Z,19.43
2023-05-08T06:02:53.205Z,20.64
2023-05-08T06:05:20.001Z,20.42
2023-05-08T06:07:46.620Z,20.69
2023-05-08T06:10:13.345Z,21.82
2023-05-08T06:12:40.211Z,22.66
2023-05-08T06:15:07.828Z,22.64
2023-05-08T06:17:34.686Z,21.99
2023-05-08T06:20:01.333Z,22.70
2023-05-08T06:22:29.237Z,22.33
2023-05-08T06:24:57.160Z,21.94
2023-05-08T06:27:23.836Z,21.62
2023-05-08T06:29:53.107Z,22.00
2023-05-08T06:32:21.297Z,22.03
2023-05-08T06:34:48.798Z,21.60
2023-05-08T06:37:15.540Z,21.35
2023-05-08T06:39:42.348Z,20.55
2023-05-08T06:42:09.143Z,21.39
2023-05-08T06:44:36.288Z,20.68
2023-05-08T06:47:02.995Z,20.96
2023-05-08T06:49:29.719Z,21.33
2023-05-08T06:51:57.989Z,20.94
2023-05-08T06:54:24.971Z,20.43
2023-05-08T06:56:54.196Z,19.95
2023-05-08T06:59:21.436Z,20.25
2023-05-08T07:01:48.076Z,20.42
2023-05-08T07:04:14.890Z,20.89
2023-05-08T07:06:41.557Z,21.38
2023-05-08T07:09:08.632Z,20.88
2023-05-08T07:11:35.368Z,21.14
2023-05-08T07:14:01.975Z,21.21
2023-05-08T07:16:28.613Z,21.30
2023-05-08T07:18:55.325Z,22.05
2023-05-08T07:21:21.907Z,22.47
2023-05-08T07:23:51.574Z,22.95
2023-05-08T07:26:18.669Z,22.95
2023-05-08T07:28:45.279Z,23.27
2023-05-08T07:31:12.178Z,24.78
2023-05-08T07:33:38.830Z,25.43
2023-05-08T07:36:05.659Z,26.39
2023-05-08T07:38:32.264Z,26.10
2023-05-08T07:41:00.672Z,25.72
2023-05-08T07:43:27.730Z,26.89
2023-05-08T07:45:54.347Z,27.47
2023-05-08T07:48:21.218Z,28.32
2023-05-08T07:50:49.926Z,27.91
2023-05-08T07:53:17.138Z,28.20
2023-05-08T07:55:43.826Z,28.53
2023-05-08T07:58:10.458Z,28.88
2023-05-08T08:00:37.799Z,28.18
2023-05-08T08:03:04.589Z,28.11
2023-05-08T08:05:31.266Z,27.96
2023-05-08T08:07:57.837Z,27.74
2023-05-08T08:10:24.363Z,28.60
2023-05-08T08:12:51.180Z,29.15
2023-05-08T08:15:17.883Z,29.06
2023-05-08T08:17:44.485Z,29.27
2023-05-08T08:20:11.453Z,29.22
2023-05-08T08:22:38.041Z,29.16
2023-05-08T08:25:04.839Z,29.90
2023-05-08T08:27:31.772Z,30.01
2023-05-08T08:30:12.185Z,29.52
2023-05-08T08:32:43.258Z,30.91
2023-05-08T08:35:10.226Z,29.64
2023-05-08T08:37:36.920Z,29.35
2023-05-08T08:40:03.941Z,28.60
2023-05-08T08:42:31.621Z,28.90
2023-05-08T08:44:58.656Z,28.67
2023-05-08T08:47:29.722Z,27.60
2023-05-08T08:50:02.952Z,28.41
2023-05-08T08:52:54.049Z,27.27
2023-05-08T08:55:23.694Z,28.13
2023-05-08T08:58:03.145Z,27.56
2023-05-08T09:00:32.904Z,27.18
2023-05-08T09:03:00.056Z,27.16
2023-05-08T09:05:29.483Z,28.96
2023-05-08T09:07:56.223Z,28.22
2023-05-08T09:10:24.657Z,28.78
2023-05-08T09:12:51.879Z,28.00
2023-05-08T09:15:19.561Z,27.23
2023-05-08T09:17:46.254Z,27.58
2023-05-08T09:20:16.195Z,27.78
2023-05-08T09:22:43.692Z,26.43
2023-05-08T09:25:10.861Z,27.46
2023-05-08T09:27:37.548Z,26.73
2023-05-08T09:30:09.284Z,27.31
2023-05-08T09:32:38.504Z,26.57
2023-05-08T09:35:06.906Z,25.12
2023-05-08T09:37:33.941Z,24.98
2023-05-08T09:40:15.608Z,24.02
2023-05-08T09:42:42.270Z,24.80
2023-05-08T09:45:09.421Z,24.36
2023-05-08T09:47:37.435Z,24.35
2023-05-08T09:50:05.862Z,23.75
2023-05-08T09:52:34.562Z,23.66
2023-05-08T09:55:06.853Z,23.34
2023-05-08T09:57:38.185Z,22.05
2023-05-08T10:00:14.689Z,22.19
2023-05-08T10:02:53.527Z,24.60
2023-05-08T10:05:34.807Z,25.66
2023-05-08T10:08:21.080Z,25.40
2023-05-08T10:10:47.944Z,25.85
2023-05-08T10:13:14.935Z,26.04
2023-05-08T10:15:45.073Z,25.66
2023-05-08T10:18:12.194Z,26.63
2023-05-08T10:20:41.455Z,26.50
2023-05-08T10:23:13.676Z,27.91
2023-05-08T10:25:48.333Z,27.75
2023-05-08T10:28:33.357Z,31.09
2023-05-08T10:31:02.859Z,31.11
2023-05-08T10:33:34.049Z,32.16
2023-05-08T10:36:00.698Z,33.83
2023-05-08T10:38:28.026Z,35.79
2023-05-08T10:40:58.282Z,38.24
2023-05-08T10:43:25.781Z,38.51
2023-05-08T10:45:55.426Z,39.62
2023-05-08T10:48:27.852Z,39.77
2023-05-08T10:51:05.285Z,40.39
2023-05-08T10:53:40.742Z,40.16
2023-05-08T10:56:07.363Z,42.40
2023-05-08T10:58:37.619Z,40.90
2023-05-08T11:01:07.927Z,39.53
2023-05-08T11:03:44.717Z,40.97
2023-05-08T11:06:12.329Z,40.92
2023-05-08T11:08:54.638Z,40.93
2023-05-08T11:11:41.021Z,41.76
2023-05-08T11:14:07.504Z,40.43
2023-05-08T11:17:01.901Z,41.29
2023-05-08T11:19:29.181Z,42.83
2023-05-08T11:22:11.018Z,42.95
2023-05-08T11:24:40.765Z,43.29
2023-05-08T11:27:07.708Z,42.76
2023-05-08T11:29:34.228Z,45.68
2023-05-08T11:32:00.975Z,45.80
2023-05-08T11:34:43.141Z,47.83
2023-05-08T11:37:10.991Z,48.85
2023-05-08T11:39:37.658Z,47.22
2023-05-08T11:42:27.040Z,50.59
2023-05-08T11:45:13.078Z,49.95
2023-05-08T11:47:41.361Z,48.75
2023-05-08T11:50:09.557Z,49.59
2023-05-08T11:52:38.841Z,50.57
2023-05-08T11:55:10.288Z,50.34
2023-05-08T11:57:36.974Z,49.82
2023-05-08T12:00:08.699Z,48.64
2023-05-08T12:02:40.542Z,47.68
2023-05-08T12:05:08.646Z,46.62
2023-05-08T12:07:48.544Z,48.71
2023-05-08T12:10:16.856Z,47.56
2023-05-08T12:12:45.019Z,47.20
2023-05-08T12:15:14.784Z,46.05
2023-05-08T12:17:42.627Z,46.04
2023-05-08T12:20:15.428Z,46.41
2023-05-08T12:22:49.474Z,46.61
2023-05-08T12:25:17.813Z,46.71
2023-05-08T12:27:46.605Z,46.71
2023-05-08T12:30:14.920Z,45.44
2023-05-08T12:32:43.803Z,41.97
2023-05-08T12:35:12.150Z,40.81
2023-05-08T12:37:39.411Z,41.83
2023-05-08T12:40:07.181Z,42.01
2023-05-08T12:42:43.659Z,41.04
2023-05-08T12:45:17.575Z,40.63
2023-05-08T12:47:53.314Z,40.30
2023-05-08T12:50:21.718Z,38.58
2023-05-08T12:52:51.109Z,36.93
2023-05-08T12:55:26.807Z,36.93
2023-05-08T12:58:09.122Z,34.09
2023-05-08T13:00:38.243Z,32.81
2023-05-08T13:03:05.910Z,31.39
2023-05-08T13:05:32.546Z,32.97
2023-05-08T13:08:07.445Z,33.96
2023-05-08T13:10:47.841Z,33.35
2023-05-08T13:13:17.221Z,32.52
2023-05-08T13:15:43.988Z,31.77
2023-05-08T13:18:11.332Z,31.98
2023-05-08T13:20:39.180Z,32.17
2023-05-08T13:23:06.454Z,32.64
2023-05-08T13:25:33.953Z,33.21
2023-05-08T13:28:00.846Z,32.95
2023-05-08T13:30:27.777Z,32.13
2023-05-08T13:32:56.600Z,31.52
2023-05-08T13:35:23.726Z,31.84
2023-05-08T13:37:50.886Z,33.21
2023-05-08T13:40:18.363Z,32.78
2023-05-08T13:42:44.953Z,33.27
2023-05-08T13:45:14.559Z,34.59
2023-05-08T13:47:45.877Z,33.61
2023-05-08T13:50:14.446Z,31.43
2023-05-08T13:52:41.269Z,31.64
2023-05-08T13:55:10.346Z,31.69
2023-05-08T13:57:36.955Z,32.34
2023-05-08T14:00:08.868Z,30.67
2023-05-08T14:02:37.217Z,30.93
2023-05-08T14:05:05.186Z,31.02
2023-05-08T14:07:31.923Z,30.83
2023-05-08T14:09:58.617Z,31.03
2023-05-08T14:12:25.369Z,31.54
2023-05-08T14:14:52.054Z,31.08
2023-05-08T14:17:18.736Z,31.25
2023-05-08T14:19:46.133Z,31.27
2023-05-08T14:22:12.888Z,30.47
2023-05-08T14:24:39.978Z,30.48
2023-05-08T14:27:06.660Z,28.84
2023-05-08T14:29:35.945Z,28.31
2023-05-08T14:32:02.742Z,29.60
2023-05-08T14:34:29.440Z,29.65
2023-05-08T14:36:56.297Z,28.43
2023-05-08T14:39:23.031Z,27.68
2023-05-08T14:42:08.887Z,28.05
2023-05-08T14:44:36.183Z,29.09
2023-05-08T14:47:02.817Z,28.44
2023-05-08T14:49:37.344Z,27.06
2023-05-08T14:52:06.134Z,28.06
2023-05-08T14:54:32.915Z,29.02
2023-05-08T14:56:59.752Z,29.47
2023-05-08T14:59:26.373Z,28.40
2023-05-08T15:01:53.013Z,27.10
2023-05-08T15:04:22.734Z,28.22
2023-05-08T15:06:49.339Z,27.96
2023-05-08T15:09:16.721Z,27.04
2023-05-08T15:11:43.854Z,26.52
2023-05-08T15:14:10.484Z,27.77
2023-05-08T15:16:37.178Z,26.59
2023-05-08T15:19:03.827Z,26.15
2023-05-08T15:21:30.963Z,25.92
2023-05-08T15:24:00.558Z,25.87
2023-05-08T15:26:27.088Z,28.15
2023-05-08T15:28:53.630Z,28.62
2023-05-08T15:31:20.870Z,28.55
2023-05-08T15:33:48.249Z,27.81
2023-05-08T15:36:15.478Z,27.55
2023-05-08T15:38:42.975Z,28.22
2023-05-08T15:41:15.049Z,27.48
2023-05-08T15:43:43.162Z,28.06
2023-05-08T15:46:09.970Z,26.42
2023-05-08T15:48:36.641Z,27.72
2023-05-08T15:51:03.351Z,28.06
2023-05-08T15:53:29.951Z,28.10
2023-05-08T15:55:57.129Z,26.05
2023-05-08T15:58:24.119Z,27.79
2023-05-08T16:00:50.781Z,28.09
2023-05-08T16:03:18.767Z,26.77
2023-05-08T16:05:45.646Z,26.99
2023-05-08T16:08:13.019Z,25.83
2023-05-08T16:10:40.707Z,26.01
2023-05-08T16:13:08.067Z,28.31
2023-05-08T16:15:34.748Z,30.00
2023-05-08T16:18:01.513Z,31.02
2023-05-08T16:20:28.137Z,29.24
2023-05-08T16:22:55.927Z,30.45
2023-05-08T16:25:22.601Z,30.22
2023-05-08T16:27:49.440Z,31.44
2023-05-08T16:30:16.437Z,30.22
2023-05-08T16:32:45.553Z,30.22
2023-05-08T16:35:12.579Z,29.78
2023-05-08T16:37:40.287Z,31.18
2023-05-08T16:40:08.574Z,33.43
2023-05-08T16:42:35.332Z,32.87
2023-05-08T16:45:02.686Z,33.69
2023-05-08T16:47:29.302Z,33.97
2023-05-08T16:49:55.979Z,35.06
2023-05-08T16:52:22.616Z,36.83
2023-05-08T16:54:49.418Z,35.98
2023-05-08T16:57:15.998Z,36.11
2023-05-08T16:59:42.521Z,36.86
2023-05-08T17:02:09.237Z,38.08
2023-05-08T17:04:36.300Z,41.28
2023-05-08T17:07:04.977Z,43.35
2023-05-08T17:09:32.636Z,41.98
2023-05-08T17:12:01.833Z,44.16
2023-05-08T17:14:28.393Z,43.80
2023-05-08T17:16:54.957Z,45.85
2023-05-08T17:19:21.532Z,46.23
2023-05-08T17:21:48.140Z,47.44
2023-05-08T17:24:14.694Z,47.46
2023-05-08T17:26:41.351Z,49.69
2023-05-08T17:29:07.879Z,50.75
2023-05-08T17:31:34.426Z,50.08
2023-05-08T17:34:01.228Z,49.99
2023-05-08T17:36:27.907Z,50.42
2023-05-08T17:38:55.075Z,51.92
2023-05-08T17:41:22.284Z,50.08
2023-05-08T17:43:48.951Z,51.41
2023-05-08T17:46:15.738Z,49.69
2023-05-08T17:48:43.665Z,50.59
2023-05-08T17:51:14.113Z,47.58
2023-05-08T17:53:40.801Z,50.18
2023-05-08T17:56:07.919Z,47.99
2023-05-08T17:58:34.509Z,48.65
2023-05-08T18:01:01.108Z,47.49
2023-05-08T18:03:27.659Z,49.01
2023-05-08T18:05:54.276Z,47.46
2023-05-08T18:08:20.918Z,46.29
2023-05-08T18:10:47.433Z,45.23
2023-05-08T18:13:14.041Z,44.22
2023-05-08T18:15:40.947Z,46.88
2023-05-08T18:18:07.922Z,43.83
2023-05-08T18:20:34.778Z,43.88
2023-05-08T18:23:01.417Z,41.09
2023-05-08T18:25:28.049Z,42.97
2023-05-08T18:27:54.702Z,41.83
2023-05-08T18:30:21.349Z,39.42
2023-05-08T18:32:48.112Z,41.03
2023-05-08T18:35:14.925Z,38.12
2023-05-08T18:37:41.648Z,39.39
2023-05-08T18:40:08.804Z,39.48
2023-05-08T18:42:35.898Z,39.72
2023-05-08T18:45:05.589Z,39.70
2023-05-08T18:47:32.610Z,37.75
2023-05-08T18:49:59.928Z,38.55
2023-05-08T18:52:29.076Z,36.95
2023-05-08T18:54:55.745Z,38.29
2023-05-08T18:57:22.290Z,37.57
2023-05-08T18:59:49.167Z,37.23
2023-05-08T19:02:15.823Z,33.90
2023-05-08T19:04:42.436Z,34.03
2023-05-08T19:07:09.149Z,34.09
2023-05-08T19:09:35.787Z,33.64
2023-05-08T19:12:02.325Z,33.49
2023-05-08T19:14:28.865Z,33.31
2023-05-08T19:16:57.803Z,32.58
2023-05-08T19:19:25.099Z,33.39
2023-05-08T19:21:51.687Z,32.54
2023-05-08T19:24:20.747Z,32.07
2023-05-08T19:26:47.578Z,32.40
2023-05-08T19:29:14.276Z,32.35
2023-05-08T19:31:41.036Z,31.29
2023-05-08T19:34:07.667Z,29.97
2023-05-08T19:36:36.861Z,29.91
2023-05-08T19:39:04.580Z,29.81
2023-05-08T19:41:31.138Z,28.72
2023-05-08T19:43:57.710Z,29.26
2023-05-08T19:46:24.399Z,28.97
2023-05-08T19:48:50.958Z,28.83
2023-05-08T19:51:17.637Z,28.44
2023-05-08T19:53:44.235Z,28.42
2023-05-08T19:56:10.771Z,28.46
2023-05-08T19:58:37.298Z,27.77
2023-05-08T20:01:03.911Z,27.59
2023-05-08T20:03:30.620Z,28.28
2023-05-08T20:05:57.323Z,28.68
2023-05-08T20:08:23.972Z,28.02
2023-05-08T20:10:50.504Z,27.64
2023-05-08T20:13:17.664Z,27.68
2023-05-08T20:15:44.445Z,27.51
2023-05-08T20:18:11.039Z,27.58
2023-05-08T20:20:37.602Z,27.78
2023-05-08T20:23:04.490Z,29.57
2023-05-08T20:25:31.172Z,30.08
2023-05-08T20:27:57.758Z,27.93
2023-05-08T20:30:24.361Z,29.47
2023-05-08T20:32:50.973Z,29.33
2023-05-08T20:35:17.567Z,29.72
2023-05-08T20:37:48.180Z,30.58
2023-05-08T20:40:15.563Z,30.67
2023-05-08T20:42:42.318Z,31.09
2023-05-08T20:45:10.029Z,32.48
2023-05-08T20:47:36.853Z,34.75
2023-05-08T20:50:04.377Z,33.72
2023-05-08T20:52:32.229Z,32.91
2023-05-08T20:54:59.575Z,31.92
2023-05-08T20:57:26.374Z,31.56
2023-05-08T20:59:52.966Z,31.77
2023-05-08T21:02:19.516Z,31.71
2023-05-08T21:04:46.193Z,29.55
2023-05-08T21:07:12.946Z,28.28
2023-05-08T21:09:39.483Z,28.04
2023-05-08T21:12:06.193Z,27.92
2023-05-08T21:14:32.854Z,26.96
2023-05-08T21:17:02.266Z,26.19
2023-05-08T21:19:31.946Z,27.16
2023-05-08T21:21:58.535Z,26.35
2023-05-08T21:24:25.759Z,26.33
2023-05-08T21:26:52.902Z,27.60
2023-05-08T21:29:19.951Z,27.41
2023-05-08T21:31:46.587Z,26.38
2023-05-08T21:34:13.465Z,26.57
2023-05-08T21:36:42.822Z,26.40
2023-05-08T21:39:09.393Z,25.33
2023-05-08T21:41:35.921Z,25.25
2023-05-08T21:44:02.487Z,25.05
2023-05-08T21:46:29.182Z,24.71
2023-05-08T21:48:55.857Z,24.65
2023-05-08T21:51:22.468Z,25.03
2023-05-08T21:53:51.915Z,24.45
2023-05-08T21:56:18.531Z,26.44
2023-05-08T21:58:45.364Z,26.28
2023-05-08T22:01:11.904Z,27.62
2023-05-08T22:03:38.962Z,26.22
2023-05-08T22:06:05.881Z,26.81
2023-05-08T22:08:32.565Z,26.52
2023-05-08T22:10:59.114Z,26.03
2023-05-08T22:13:25.899Z,25.84
2023-05-08T22:15:52.554Z,27.06
2023-05-08T22:18:19.086Z,26.73
2023-05-08T22:20:45.624Z,26.83
2023-05-08T22:23:12.153Z,26.62
2023-05-08T22:25:38.687Z,26.30
2023-05-08T22:28:05.241Z,26.80
2023-05-08T22:30:31.912Z,27.96
2023-05-08T22:32:59.269Z,27.67
2023-05-08T22:35:27.481Z,27.33
2023-05-08T22:37:55.093Z,26.79
2023-05-08T22:40:22.247Z,27.29
2023-05-08T22:42:51.477Z,27.02
2023-05-08T22:45:18.657Z,25.90
2023-05-08T22:47:45.878Z,26.53
2023-05-08T22:50:12.577Z,26.57
2023-05-08T22:52:39.614Z,27.17
2023-05-08T22:55:07.001Z,28.11
2023-05-08T22:57:33.661Z,29.01
2023-05-08T23:00:00.363Z,29.04
2023-05-08T23:02:35.133Z,29.86
2023-05-08T23:05:02.267Z,30.36
2023-05-08T23:07:29.639Z,29.34
2023-05-08T23:09:56.313Z,27.99
2023-05-08T23:12:23.121Z,28.74
2023-05-08T23:14:49.715Z,28.53
2023-05-08T23:17:16.306Z,28.42
2023-05-08T23:19:42.977Z,27.74
2023-05-08T23:22:10.088Z,28.47
2023-05-08T23:24:37.387Z,27.72
2023-05-08T23:27:04.038Z,28.36
2023-05-08T23:29:30.639Z,28.31
2023-05-08T23:31:57.145Z,29.60
2023-05-08T23:34:23.718Z,29.32
2023-05-08T23:36:50.399Z,28.59
2023-05-08T23:39:16.986Z,30.17
2023-05-08T23:41:43.562Z,29.65
2023-05-08T23:44:10.322Z,29.25
2023-05-08T23:46:36.934Z,29.96
2023-05-08T23:49:05.337Z,30.48
2023-05-08T23:51:32.204Z,30.40
2023-05-08T23:53:58.831Z,30.20
2023-05-08T23:56:26.812Z,30.42
2023-05-08T23:58:53.414Z,30.35
